createdAt,value
2023-04-08T00:00:59.508Z,21.00
2023-04-08T00:03:26.493Z,19.53
2023-04-08T00:05:53.572Z,23.60
2023-04-08T00:08:20.446Z,20.23
2023-04-08T00:10:47.229Z,19.53
2023-04-08T00:13:14.129Z,22.43
2023-04-08T00:15:42.258Z,24.20
2023-04-08T00:18:09.154Z,21.90
2023-04-08T00:20:36.053Z,21.67
2023-04-08T00:23:03.116Z,21.27
2023-04-08T00:25:29.928Z,20.80
2023-04-08T00:27:56.793Z,21.17
2023-04-08T00:30:23.656Z,21.90
2023-04-08T00:32:50.576Z,19.33
2023-04-08T00:35:17.490Z,21.47
2023-04-08T00:37:44.360Z,20.00
2023-04-08T00:40:12.120Z,20.73
2023-04-08T00:42:39.851Z,22.00
2023-04-08T00:45:07.675Z,25.13
2023-04-08T00:47:36.833Z,18.50
2023-04-08T00:50:04.552Z,17.07
2023-04-08T00:52:31.443Z,20.53
2023-04-08T00:54:58.290Z,20.40
2023-04-08T00:57:25.247Z,18.67
2023-04-08T00:59:52.265Z,18.20
2023-04-08T01:03:06.646Z,21.07
2023-04-08T01:05:54.776Z,21.30
2023-04-08T01:08:23.566Z,17.80
2023-04-08T01:10:54.313Z,17.97
2023-04-08T01:13:24.055Z,21.70
2023-04-08T01:15:50.980Z,20.37
2023-04-08T01:18:19.076Z,19.03
2023-04-08T01:20:47.162Z,18.30
2023-04-08T01:26:47.887Z,18.33
2023-04-08T01:29:16.744Z,17.17
2023-04-08T01:31:44.966Z,21.90
2023-04-08T01:34:15.392Z,19.53
2023-04-08T01:36:45.558Z,26.00
2023-04-08T01:39:15.200Z,19.63
2023-04-08T01:41:42.525Z,21.70
2023-04-08T01:44:12.096Z,19.90
2023-04-08T01:46:41.586Z,19.20
2023-04-08T01:49:09.653Z,22.50
2023-04-08T01:51:38.897Z,18.13
2023-04-08T01:54:06.298Z,19.93
2023-04-08T01:56:39.658Z,22.57
2023-04-08T01:59:14.139Z,17.27
2023-04-08T02:01:43.369Z,21.60
2023-04-08T02:04:10.769Z,19.40
2023-04-08T02:06:38.270Z,17.47
2023-04-08T02:09:05.101Z,17.97
2023-04-08T02:11:32.010Z,16.17
2023-04-08T02:13:59.183Z,16.73
2023-04-08T02:16:34.717Z,16.73
2023-04-08T02:19:29.928Z,17.10
2023-04-08T02:22:06.348Z,18.40
2023-04-08T02:24:35.403Z,16.10
2023-04-08T02:27:04.450Z,16.80
2023-04-08T02:29:33.888Z,16.67
2023-04-08T02:32:02.450Z,16.03
2023-04-08T02:34:30.836Z,16.20
2023-04-08T02:36:58.279Z,15.37
2023-04-08T02:39:33.309Z,16.70
2023-04-08T02:42:00.329Z,16.73
2023-04-08T02:44:27.153Z,17.30
2023-04-08T02:46:53.967Z,16.03
2023-04-08T02:49:20.796Z,16.17
2023-04-08T02:51:47.784Z,16.43
2023-04-08T02:54:14.668Z,16.07
2023-04-08T02:56:41.568Z,15.80
2023-04-08T02:59:08.396Z,15.70
2023-04-08T03:01:35.422Z,17.27
2023-04-08T03:04:02.531Z,14.93
2023-04-08T03:06:29.383Z,16.17
2023-04-08T03:08:56.277Z,15.70
2023-04-08T03:11:23.104Z,17.10
2023-04-08T03:13:49.931Z,16.97
2023-04-08T03:16:16.754Z,18.07
2023-04-08T03:18:43.728Z,15.60
2023-04-08T03:21:10.536Z,16.17
2023-04-08T03:23:37.340Z,15.17
2023-04-08T03:26:04.123Z,16.27
2023-04-08T03:28:30.943Z,15.27
2023-04-08T03:30:57.830Z,16.53
2023-04-08T03:33:24.823Z,17.20
2023-04-08T03:35:51.664Z,16.50
2023-04-08T03:38:18.581Z,17.30
2023-04-08T03:40:45.389Z,15.50
2023-04-08T03:43:12.288Z,16.33
2023-04-08T03:45:39.193Z,17.47
2023-04-08T03:48:06.594Z,18.80
2023-04-08T03:50:33.599Z,17.63
2023-04-08T03:53:00.423Z,15.33
2023-04-08T03:55:27.243Z,16.83
2023-04-08T03:57:54.130Z,18.83
2023-04-08T04:00:20.916Z,16.43
2023-04-08T04:02:47.929Z,17.27
2023-04-08T04:05:14.830Z,21.20
2023-04-08T04:07:41.664Z,17.50
2023-04-08T04:10:09.514Z,18.43
2023-04-08T04:12:36.436Z,17.87
2023-04-08T04:15:03.972Z,17.07
2023-04-08T04:17:30.853Z,17.40
2023-04-08T04:19:57.702Z,19.93
2023-04-08T04:22:24.563Z,16.53
2023-04-08T04:24:51.403Z,19.73
2023-04-08T04:27:18.322Z,16.87
2023-04-08T04:29:45.283Z,15.63
2023-04-08T04:32:12.173Z,17.17
2023-04-08T04:34:39.048Z,17.93
2023-04-08T04:37:05.852Z,18.63
2023-04-08T04:39:32.813Z,18.23
2023-04-08T04:41:59.617Z,17.60
2023-04-08T04:44:26.440Z,18.97
2023-04-08T04:46:53.337Z,20.13
2023-04-08T04:49:20.271Z,20.03
2023-04-08T04:51:47.130Z,16.33
2023-04-08T04:54:13.960Z,16.27
2023-04-08T04:56:40.833Z,18.67
2023-04-08T04:59:07.710Z,19.10
2023-04-08T05:01:35.355Z,18.17
2023-04-08T05:04:02.390Z,19.63
2023-04-08T05:06:29.184Z,21.83
2023-04-08T05:08:56.023Z,23.17
2023-04-08T05:11:22.829Z,25.33
2023-04-08T05:13:49.826Z,27.47
2023-04-08T05:16:16.911Z,35.17
2023-04-08T05:18:43.785Z,20.93
2023-04-08T05:21:10.741Z,21.83
2023-04-08T05:23:37.555Z,17.40
2023-04-08T05:26:08.178Z,19.23
2023-04-08T05:28:35.967Z,21.63
2023-04-08T05:31:03.004Z,20.17
2023-04-08T05:33:29.937Z,19.43
2023-04-08T05:35:56.977Z,20.73
2023-04-08T05:38:24.024Z,21.70
2023-04-08T05:40:50.869Z,22.80
2023-04-08T05:43:17.701Z,23.70
2023-04-08T05:45:44.612Z,21.93
2023-04-08T05:48:11.493Z,31.23
2023-04-08T05:50:38.339Z,27.60
2023-04-08T05:53:05.170Z,25.13
2023-04-08T05:55:32.104Z,22.50
2023-04-08T05:57:58.874Z,27.00
2023-04-08T06:00:25.933Z,25.37
2023-04-08T06:02:53.219Z,24.93
2023-04-08T06:05:20.234Z,27.07
2023-04-08T06:07:47.157Z,25.23
2023-04-08T06:10:14.225Z,29.70
2023-04-08T06:12:41.071Z,32.17
2023-04-08T06:15:09.625Z,37.30
2023-04-08T06:17:38.290Z,32.60
2023-04-08T06:20:07.026Z,28.63
2023-04-08T06:22:33.893Z,27.50
2023-04-08T06:25:00.751Z,25.57
2023-04-08T06:27:27.727Z,33.73
2023-04-08T06:29:54.826Z,31.17
2023-04-08T06:32:22.854Z,30.67
2023-04-08T06:34:49.802Z,33.57
2023-04-08T06:37:16.658Z,31.10
2023-04-08T06:39:43.628Z,31.30
2023-04-08T06:42:10.429Z,33.63
2023-04-08T06:44:37.308Z,32.50
2023-04-08T06:47:04.204Z,29.23
2023-04-08T06:49:31.033Z,32.17
2023-04-08T06:51:57.874Z,31.80
2023-04-08T06:54:24.766Z,31.07
2023-04-08T06:56:51.590Z,28.30
2023-04-08T06:59:18.390Z,30.43
2023-04-08T07:01:45.203Z,29.40
2023-04-08T07:04:12.139Z,26.37
2023-04-08T07:06:39.009Z,27.17
2023-04-08T07:09:05.794Z,31.57
2023-04-08T07:11:32.786Z,26.80
2023-04-08T07:13:59.836Z,24.20
2023-04-08T07:16:26.900Z,23.30
2023-04-08T07:18:53.778Z,23.47
2023-04-08T07:21:20.593Z,22.27
2023-04-08T07:23:47.483Z,24.43
2023-04-08T07:26:14.353Z,22.90
2023-04-08T07:28:41.452Z,21.50
2023-04-08T07:31:18.586Z,25.40
2023-04-08T07:33:46.686Z,25.73
2023-04-08T07:36:15.069Z,23.10
2023-04-08T07:38:41.872Z,22.90
2023-04-08T07:41:08.988Z,24.93
2023-04-08T07:43:35.948Z,23.23
2023-04-08T07:46:06.882Z,23.63
2023-04-08T07:48:35.179Z,28.00
2023-04-08T07:51:10.649Z,24.80
2023-04-08T07:53:40.008Z,24.27
2023-04-08T07:56:15.465Z,23.90
2023-04-08T07:58:42.797Z,24.23
2023-04-08T08:01:22.448Z,24.20
2023-04-08T08:03:51.845Z,30.57
2023-04-08T08:06:19.479Z,24.13
2023-04-08T08:08:46.376Z,28.00
2023-04-08T08:11:13.640Z,27.37
2023-04-08T08:13:40.507Z,27.27
2023-04-08T08:16:07.367Z,26.33
2023-04-08T08:18:35.030Z,25.67
2023-04-08T08:21:03.063Z,31.40
2023-04-08T08:23:29.888Z,25.20
2023-04-08T08:26:01.686Z,23.70
2023-04-08T08:28:28.855Z,23.83
2023-04-08T08:30:55.730Z,23.07
2023-04-08T08:33:22.680Z,24.20
2023-04-08T08:35:49.590Z,27.07
2023-04-08T08:38:16.425Z,25.77
2023-04-08T08:40:44.685Z,23.70
2023-04-08T08:43:12.122Z,24.03
2023-04-08T08:45:43.237Z,25.20
2023-04-08T08:48:10.011Z,21.90
2023-04-08T08:50:37.306Z,26.13
2023-04-08T08:53:04.217Z,23.57
2023-04-08T08:55:50.888Z,25.30
2023-04-08T08:58:20.187Z,24.20
2023-04-08T09:00:47.028Z,23.97
2023-04-08T09:03:28.312Z,27.10
2023-04-08T09:06:02.125Z,27.83
2023-04-08T09:08:36.522Z,25.83
2023-04-08T09:11:20.811Z,26.30
2023-04-08T09:13:48.149Z,21.57
2023-04-08T09:16:20.162Z,22.67
2023-04-08T09:18:48.437Z,25.57
2023-04-08T09:21:23.191Z,23.33
2023-04-08T09:23:52.556Z,25.20
2023-04-08T09:26:24.697Z,24.10
2023-04-08T09:29:18.332Z,21.13
2023-04-08T09:31:57.040Z,23.20
2023-04-08T09:34:25.570Z,22.53
2023-04-08T09:36:54.075Z,23.20
2023-04-08T09:39:21.429Z,23.57
2023-04-08T09:41:50.812Z,24.30
2023-04-08T09:44:20.186Z,22.07
2023-04-08T09:46:49.677Z,22.67
2023-04-08T09:49:25.722Z,21.53
2023-04-08T09:52:10.465Z,21.30
2023-04-08T09:55:04.296Z,24.07
2023-04-08T09:57:59.705Z,20.93
2023-04-08T10:00:34.415Z,19.30
2023-04-08T10:03:23.690Z,21.83
2023-04-08T10:05:54.310Z,25.03
2023-04-08T10:08:23.048Z,24.80
2023-04-08T10:10:50.764Z,23.10
2023-04-08T10:13:18.927Z,25.63
2023-04-08T10:15:45.756Z,22.33
2023-04-08T10:18:12.565Z,24.10
2023-04-08T10:20:39.394Z,21.83
2023-04-08T10:23:08.463Z,25.07
2023-04-08T10:25:39.755Z,25.00
2023-04-08T10:28:12.379Z,26.33
2023-04-08T10:30:53.629Z,27.20
2023-04-08T10:33:34.365Z,26.87
2023-04-08T10:36:12.559Z,27.60
2023-04-08T10:38:40.203Z,26.73
2023-04-08T10:41:07.071Z,27.03
2023-04-08T10:43:35.935Z,24.77
2023-04-08T10:46:04.189Z,27.53
2023-04-08T10:48:31.132Z,24.03
2023-04-08T10:51:01.612Z,25.80
2023-04-08T10:53:36.426Z,25.83
2023-04-08T10:56:14.793Z,29.47
2023-04-08T10:58:50.219Z,24.40
2023-04-08T11:01:18.151Z,24.87
2023-04-08T11:03:45.774Z,25.43
2023-04-08T11:06:12.700Z,25.90
2023-04-08T11:08:39.643Z,26.77
2023-04-08T11:11:07.638Z,28.20
2023-04-08T11:13:40.728Z,24.13
2023-04-08T11:16:17.618Z,29.77
2023-04-08T11:18:45.758Z,29.33
2023-04-08T11:21:12.735Z,29.33
2023-04-08T11:23:39.563Z,24.43
2023-04-08T11:26:06.986Z,25.97
2023-04-08T11:28:35.234Z,26.20
2023-04-08T11:31:02.881Z,26.43
2023-04-08T11:33:33.397Z,30.80
2023-04-08T11:36:03.503Z,28.50
2023-04-08T11:38:30.374Z,26.07
2023-04-08T11:40:59.594Z,29.70
2023-04-08T11:43:26.731Z,31.80
2023-04-08T11:45:53.569Z,26.70
2023-04-08T11:48:20.468Z,29.50
2023-04-08T11:50:47.383Z,26.97
2023-04-08T11:53:22.602Z,29.83
2023-04-08T11:55:49.527Z,26.67
2023-04-08T11:58:16.849Z,26.63
2023-04-08T12:00:44.459Z,29.63
2023-04-08T12:03:12.229Z,25.23
2023-04-08T12:05:39.543Z,28.30
2023-04-08T12:08:06.476Z,26.57
2023-04-08T12:10:33.405Z,27.07
2023-04-08T12:13:00.304Z,28.20
2023-04-08T12:15:27.316Z,28.67
2023-04-08T12:17:54.179Z,33.03
2023-04-08T12:20:21.194Z,27.10
2023-04-08T12:22:48.241Z,29.57
2023-04-08T12:25:15.261Z,28.00
2023-04-08T12:27:42.213Z,26.20
2023-04-08T12:30:10.076Z,25.17
2023-04-08T12:32:36.905Z,24.67
2023-04-08T12:35:03.845Z,24.03
2023-04-08T12:37:30.661Z,24.50
2023-04-08T12:39:57.447Z,23.13
2023-04-08T12:42:24.354Z,23.63
2023-04-08T12:44:51.160Z,24.50
2023-04-08T12:47:18.039Z,22.23
2023-04-08T12:52:14.715Z,21.97
2023-04-08T12:54:41.560Z,22.97
2023-04-08T12:57:08.415Z,20.50
2023-04-08T12:59:35.331Z,20.73
2023-04-08T13:02:02.340Z,22.93
2023-04-08T13:04:29.286Z,24.80
2023-04-08T13:06:56.126Z,20.93
2023-04-08T13:09:23.113Z,19.20
2023-04-08T13:11:50.155Z,21.37
2023-04-08T13:14:16.971Z,19.40
2023-04-08T13:16:43.868Z,13.90
2023-04-08T13:19:10.753Z,10.90
2023-04-08T13:21:37.616Z,10.80
2023-04-08T13:24:04.970Z,10.30
2023-04-08T13:26:31.863Z,11.90
2023-04-08T13:28:58.808Z,11.13
2023-04-08T13:31:26.225Z,11.13
2023-04-08T13:33:55.292Z,12.47
2023-04-08T13:36:23.916Z,12.10
2023-04-08T13:38:51.084Z,11.93
2023-04-08T13:41:18.244Z,12.10
2023-04-08T13:43:45.044Z,10.53
2023-04-08T13:46:11.886Z,10.87
2023-04-08T13:48:38.859Z,11.30
2023-04-08T13:51:05.703Z,9.60
2023-04-08T13:53:32.574Z,11.60
2023-04-08T13:55:59.433Z,11.00
2023-04-08T13:58:26.286Z,11.23
2023-04-08T14:00:53.191Z,11.83
2023-04-08T14:03:20.296Z,11.63
2023-04-08T14:05:47.122Z,10.10
2023-04-08T14:08:14.079Z,10.80
2023-04-08T14:10:41.047Z,10.03
2023-04-08T14:13:08.093Z,8.73
2023-04-08T14:15:34.952Z,7.93
2023-04-08T14:18:01.939Z,9.03
2023-04-08T14:20:29.094Z,8.63
2023-04-08T14:22:55.923Z,14.20
2023-04-08T14:25:22.752Z,14.77
2023-04-08T14:27:58.053Z,8.57
2023-04-08T14:30:26.157Z,10.70
2023-04-08T14:32:53.377Z,8.33
2023-04-08T14:35:20.282Z,9.13
2023-04-08T14:37:47.194Z,8.87
2023-04-08T14:40:14.215Z,8.80
2023-04-08T14:42:41.225Z,8.63
2023-04-08T14:45:09.114Z,8.73
2023-04-08T14:47:36.134Z,7.57
2023-04-08T14:50:03.120Z,8.67
2023-04-08T14:52:30.032Z,8.57
2023-04-08T14:54:56.826Z,8.30
2023-04-08T14:57:23.674Z,9.33
2023-04-08T14:59:51.183Z,14.10
2023-04-08T15:02:18.167Z,14.47
2023-04-08T15:04:45.186Z,10.80
2023-04-08T15:07:12.179Z,9.63
2023-04-08T15:09:39.142Z,12.67
2023-04-08T15:12:06.130Z,8.93
2023-04-08T15:14:33.018Z,11.33
2023-04-08T15:16:59.892Z,10.30
2023-04-08T15:19:26.772Z,10.20
2023-04-08T15:21:53.576Z,11.43
2023-04-08T15:24:20.400Z,11.30
2023-04-08T15:26:47.302Z,11.47
2023-04-08T15:29:14.134Z,7.37
2023-04-08T15:31:41.095Z,8.67
2023-04-08T15:34:08.234Z,7.67
2023-04-08T15:36:35.145Z,7.60
2023-04-08T15:39:02.001Z,7.40
2023-04-08T15:41:28.824Z,8.53
2023-04-08T15:43:55.686Z,9.10
2023-04-08T15:46:22.861Z,8.70
2023-04-08T15:48:51.228Z,8.60
2023-04-08T15:51:18.430Z,9.70
2023-04-08T15:53:45.318Z,10.60
2023-04-08T15:56:16.737Z,16.80
2023-04-08T15:58:45.338Z,13.43
2023-04-08T16:01:12.854Z,11.70
2023-04-08T16:03:39.773Z,9.97
2023-04-08T16:06:06.816Z,9.00
2023-04-08T16:08:34.695Z,10.60
2023-04-08T16:11:05.464Z,11.07
2023-04-08T16:13:32.595Z,11.47
2023-04-08T16:16:02.687Z,11.17
2023-04-08T16:18:30.523Z,9.10
2023-04-08T16:20:57.852Z,9.87
2023-04-08T16:23:24.818Z,9.07
2023-04-08T16:25:52.050Z,8.73
2023-04-08T16:28:18.941Z,9.70
2023-04-08T16:30:45.744Z,8.93
2023-04-08T16:33:12.866Z,9.70
2023-04-08T16:35:39.960Z,9.50
2023-04-08T16:38:06.834Z,12.87
2023-04-08T16:40:34.940Z,13.13
2023-04-08T16:43:02.647Z,14.83
2023-04-08T16:45:30.092Z,14.87
2023-04-08T16:47:57.672Z,12.63
2023-04-08T16:50:25.069Z,13.70
2023-04-08T16:52:51.980Z,12.97
2023-04-08T16:55:19.503Z,15.53
2023-04-08T16:57:46.488Z,16.70
2023-04-08T17:00:14.118Z,13.77
2023-04-08T17:02:41.121Z,14.10
2023-04-08T17:05:08.684Z,12.20
2023-04-08T17:07:35.439Z,15.20
2023-04-08T17:10:02.328Z,13.37
2023-04-08T17:12:29.422Z,11.63
2023-04-08T17:14:56.225Z,11.30
2023-04-08T17:17:23.191Z,13.27
2023-04-08T17:19:50.048Z,17.00
2023-04-08T17:22:16.826Z,15.07
2023-04-08T17:24:44.957Z,11.60
2023-04-08T17:27:13.566Z,12.50
2023-04-08T17:29:40.433Z,12.93
2023-04-08T17:32:07.587Z,12.90
2023-04-08T17:34:34.523Z,11.60
2023-04-08T17:37:01.366Z,12.47
2023-04-08T17:39:28.171Z,11.50
2023-04-08T17:41:54.986Z,12.50
2023-04-08T17:44:21.830Z,12.97
2023-04-08T17:46:48.687Z,12.37
2023-04-08T17:49:15.632Z,14.83
2023-04-08T17:51:42.440Z,13.77
2023-04-08T17:54:09.361Z,18.03
2023-04-08T17:56:36.308Z,13.43
2023-04-08T17:59:03.094Z,14.47
2023-04-08T18:01:30.055Z,13.10
2023-04-08T18:03:57.709Z,12.60
2023-04-08T18:06:25.536Z,12.23
2023-04-08T18:08:52.758Z,12.47
2023-04-08T18:11:19.977Z,14.10
2023-04-08T18:13:47.780Z,13.07
2023-04-08T18:16:19.884Z,14.77
2023-04-08T18:18:47.659Z,12.93
2023-04-08T18:21:15.600Z,12.80
2023-04-08T18:23:42.482Z,17.37
2023-04-08T18:26:10.359Z,13.27
2023-04-08T18:28:39.693Z,18.30
2023-04-08T18:31:06.676Z,16.70
2023-04-08T18:33:33.954Z,10.20
2023-04-08T18:36:12.217Z,11.80
2023-04-08T18:38:40.061Z,13.27
2023-04-08T18:41:08.158Z,12.67
2023-04-08T18:43:36.090Z,11.77
2023-04-08T18:46:03.354Z,11.90
2023-04-08T18:48:30.718Z,11.27
2023-04-08T18:50:57.576Z,10.73
2023-04-08T18:53:24.425Z,10.50
2023-04-08T18:55:51.328Z,12.67
2023-04-08T18:58:18.217Z,9.17
2023-04-08T19:00:45.160Z,12.77
2023-04-08T19:03:12.078Z,9.90
2023-04-08T19:05:39.175Z,11.10
2023-04-08T19:08:06.321Z,10.90
2023-04-08T19:10:34.429Z,9.90
2023-04-08T19:13:02.252Z,10.13
2023-04-08T19:15:29.861Z,18.60
2023-04-08T19:17:56.917Z,12.93
2023-04-08T19:20:24.391Z,11.37
2023-04-08T19:22:51.404Z,11.27
2023-04-08T19:25:18.337Z,10.67
2023-04-08T19:27:45.135Z,10.37
2023-04-08T19:30:12.274Z,12.77
2023-04-08T19:32:39.219Z,11.20
2023-04-08T19:35:07.366Z,10.93
2023-04-08T19:37:34.177Z,12.83
2023-04-08T19:40:01.022Z,11.07
2023-04-08T19:42:27.781Z,11.83
2023-04-08T19:44:55.133Z,14.30
2023-04-08T19:47:22.245Z,11.30
2023-04-08T19:49:49.180Z,12.33
2023-04-08T19:52:15.982Z,12.03
2023-04-08T19:54:42.889Z,13.07
2023-04-08T19:57:09.858Z,11.50
2023-04-08T19:59:37.678Z,11.40
2023-04-08T20:02:04.570Z,11.30
2023-04-08T20:04:31.670Z,12.10
2023-04-08T20:06:58.916Z,12.70
2023-04-08T20:09:25.785Z,12.33
2023-04-08T20:11:52.579Z,14.13
2023-04-08T20:14:19.470Z,11.60
2023-04-08T20:16:46.283Z,11.93
2023-04-08T20:19:13.112Z,12.27
2023-04-08T20:21:39.946Z,12.43
2023-04-08T20:24:06.772Z,13.53
2023-04-08T20:26:33.652Z,12.23
2023-04-08T20:29:00.444Z,13.33
2023-04-08T20:31:27.415Z,12.43
2023-04-08T20:33:54.212Z,14.67
2023-04-08T20:36:21.064Z,14.80
2023-04-08T20:38:47.913Z,14.60
2023-04-08T20:41:19.303Z,12.80
2023-04-08T20:43:46.631Z,16.47
2023-04-08T20:46:13.500Z,14.90
2023-04-08T20:48:40.434Z,14.83
2023-04-08T20:51:07.208Z,16.47
2023-04-08T20:53:34.083Z,15.43
2023-04-08T20:56:01.232Z,18.20
2023-04-08T20:58:28.443Z,13.80
2023-04-08T21:00:57.633Z,14.43
2023-04-08T21:03:24.744Z,13.73
2023-04-08T21:05:52.159Z,14.10
2023-04-08T21:08:19.032Z,14.93
2023-04-08T21:10:45.879Z,15.40
2023-04-08T21:13:12.929Z,15.93
2023-04-08T21:15:39.779Z,13.90
2023-04-08T21:18:06.723Z,13.60
2023-04-08T21:20:33.805Z,13.30
2023-04-08T21:23:00.676Z,15.73
2023-04-08T21:25:27.514Z,15.27
2023-04-08T21:27:54.343Z,13.47
2023-04-08T21:30:21.269Z,14.80
2023-04-08T21:32:48.060Z,17.80
2023-04-08T21:35:15.543Z,18.40
2023-04-08T21:37:42.357Z,20.70
2023-04-08T21:40:10.120Z,18.30
2023-04-08T21:42:36.913Z,18.37
2023-04-08T21:45:04.258Z,17.60
2023-04-08T21:47:31.063Z,16.93
2023-04-08T21:49:58.084Z,18.37
2023-04-08T21:52:24.911Z,15.77
2023-04-08T21:54:51.802Z,17.27
2023-04-08T21:57:19.470Z,14.97
2023-04-08T21:59:46.267Z,17.50
2023-04-08T22:02:13.225Z,14.57
2023-04-08T22:04:40.427Z,15.20
2023-04-08T22:07:07.213Z,16.50
2023-04-08T22:09:35.075Z,14.73
2023-04-08T22:12:02.041Z,14.57
2023-04-08T22:14:29.002Z,14.93
2023-04-08T22:16:55.969Z,16.50
2023-04-08T22:19:22.990Z,14.40
2023-04-08T22:21:49.875Z,13.80
2023-04-08T22:24:20.526Z,16.40
2023-04-08T22:26:47.661Z,15.87
2023-04-08T22:29:14.500Z,14.93
2023-04-08T22:31:41.386Z,16.97
2023-04-08T22:34:08.349Z,13.80
2023-04-08T22:36:35.161Z,16.67
2023-04-08T22:39:01.991Z,14.13
2023-04-08T22:41:28.867Z,16.27
2023-04-08T22:43:55.698Z,15.47
2023-04-08T22:46:22.584Z,15.00
2023-04-08T22:48:49.875Z,14.63
2023-04-08T22:51:17.036Z,15.80
2023-04-08T22:53:43.994Z,16.00
2023-04-08T22:56:10.764Z,16.87
2023-04-08T22:58:37.596Z,16.67
2023-04-08T23:01:18.524Z,17.23
2023-04-08T23:03:45.395Z,17.40
2023-04-08T23:06:12.315Z,16.60
2023-04-08T23:08:40.186Z,17.53
2023-04-08T23:11:07.241Z,15.70
2023-04-08T23:13:34.406Z,17.63
2023-04-08T23:16:01.279Z,15.20
2023-04-08T23:18:28.216Z,15.97
2023-04-08T23:20:57.329Z,15.27
2023-04-08T23:23:25.445Z,16.63
2023-04-08T23:25:55.368Z,16.17
2023-04-08T23:28:23.341Z,17.20
2023-04-08T23:30:50.235Z,19.10
2023-04-08T23:33:17.148Z,17.37
2023-04-08T23:35:44.165Z,16.50
2023-04-08T23:38:11.005Z,16.60
2023-04-08T23:40:37.946Z,20.60
2023-04-08T23:43:04.684Z,17.10
2023-04-08T23:45:31.535Z,16.23
2023-04-08T23:47:58.835Z,16.10
2023-04-08T23:50:25.864Z,16.57
2023-04-08T23:52:52.746Z,17.33
2023-04-08T23:55:19.588Z,25.43
2023-04-08T23:57:46.468Z,29.67
